sensor_id;sensor_type;location;lat;lon;timestamp;P1;P2;P0
30342;PMS5003;17145;49.902;8.680;2023-05-10T00:02:00;29;29;
30342;PMS5003;17145;49.902;8.680;2023-05-10T00:04:27;16;16;
30342;PMS5003;17145;49.902;8.680;2023-05-10T00:06:54;13;13;
30342;PMS5003;17145;49.902;8.680;2023-05-10T00:09:22;13;13;
30342;PMS5003;17145;49.902;8.680;2023-05-10T00:11:49;19;15;
30342;PMS5003;17145;49.902;8.680;2023-05-10T00:14:17;15;15;
30342;PMS5003;17145;49.902;8.680;2023-05-10T00:16:44;10;10;
30342;PMS5003;17145;49.902;8.680;2023-05-10T00:19:12;11;10;
30342;PMS5003;17145;49.902;8.680;2023-05-10T00:21:39;11;11;
30342;PMS5003;17145;49.902;8.680;2023-05-10T00:24:07;13;13;
30342;PMS5003;17145;49.902;8.680;2023-05-10T00:26:34;10;10;
30342;PMS5003;17145;49.902;8.680;2023-05-10T00:29:01;59;53;
30342;PMS5003;17145;49.902;8.680;2023-05-10T00:31:29;18;17;
30342;PMS5003;17145;49.902;8.680;2023-05-10T00:33:56;19;19;
30342;PMS5003;17145;49.902;8.680;2023-05-10T00:36:23;16;16;
30342;PMS5003;17145;49.902;8.680;2023-05-10T00:38:51;16;15;
30342;PMS5003;17145;49.902;8.680;2023-05-10T00:41:18;24;24;
30342;PMS5003;17145;49.902;8.680;2023-05-10T00:43:46;18;18;
30342;PMS5003;17145;49.902;8.680;2023-05-10T00:46:13;59;59;
30342;PMS5003;17145;49.902;8.680;2023-05-10T00:48:42;63;63;
30342;PMS5003;17145;49.902;8.680;2023-05-10T00:51:10;162;162;
30342;PMS5003;17145;49.902;8.680;2023-05-10T00:53:38;31;25;
30342;PMS5003;17145;49.902;8.680;2023-05-10T00:56:05;117;116;
30342;PMS5003;17145;49.902;8.680;2023-05-10T00:58:33;106;106;
30342;PMS5003;17145;49.902;8.680;2023-05-10T01:01:00;110;110;
30342;PMS5003;17145;49.902;8.680;2023-05-10T01:03:29;112;112;
30342;PMS5003;17145;49.902;8.680;2023-05-10T01:05:57;30;30;
30342;PMS5003;17145;49.902;8.680;2023-05-10T01:08:24;42;42;
30342;PMS5003;17145;49.902;8.680;2023-05-10T01:10:52;28;27;
30342;PMS5003;17145;49.902;8.680;2023-05-10T01:13:24;9;9;
30342;PMS5003;17145;49.902;8.680;2023-05-10T01:15:59;11;11;
30342;PMS5003;17145;49.902;8.680;2023-05-10T01:18:27;11;10;
30342;PMS5003;17145;49.902;8.680;2023-05-10T01:21:01;10;10;
30342;PMS5003;17145;49.902;8.680;2023-05-10T01:23:41;9;9;
30342;PMS5003;17145;49.902;8.680;2023-05-10T01:26:22;10;10;
30342;PMS5003;17145;49.902;8.680;2023-05-10T01:29:11;10;10;
30342;PMS5003;17145;49.902;8.680;2023-05-10T01:34:38;9;9;
30342;PMS5003;17145;49.902;8.680;2023-05-10T01:37:15;9;8;
30342;PMS5003;17145;49.902;8.680;2023-05-10T01:39:48;8;8;
30342;PMS5003;17145;49.902;8.680;2023-05-10T01:42:21;10;9;
30342;PMS5003;17145;49.902;8.680;2023-05-10T01:44:53;8;8;
30342;PMS5003;17145;49.902;8.680;2023-05-10T01:47:26;6;6;
30342;PMS5003;17145;49.902;8.680;2023-05-10T01:50:03;9;9;
30342;PMS5003;17145;49.902;8.680;2023-05-10T01:52:36;8;7;
30342;PMS5003;17145;49.902;8.680;2023-05-10T01:55:09;9;9;
30342;PMS5003;17145;49.902;8.680;2023-05-10T01:57:40;10;9;
30342;PMS5003;17145;49.902;8.680;2023-05-10T02:00:11;8;8;
30342;PMS5003;17145;49.902;8.680;2023-05-10T02:02:44;8;8;
30342;PMS5003;17145;49.902;8.680;2023-05-10T02:05:14;10;10;
30342;PMS5003;17145;49.902;8.680;2023-05-10T02:07:43;10;10;
30342;PMS5003;17145;49.902;8.680;2023-05-10T02:10:12;10;10;
30342;PMS5003;17145;49.902;8.680;2023-05-10T02:12:41;7;7;
30342;PMS5003;17145;49.902;8.680;2023-05-10T02:15:11;8;8;
30342;PMS5003;17145;49.902;8.680;2023-05-10T02:17:41;9;9;
30342;PMS5003;17145;49.902;8.680;2023-05-10T02:20:10;7;7;
30342;PMS5003;17145;49.902;8.680;2023-05-10T02:22:39;13;12;
30342;PMS5003;17145;49.902;8.680;2023-05-10T02:25:08;8;8;
30342;PMS5003;17145;49.902;8.680;2023-05-10T02:27:37;10;9;
30342;PMS5003;17145;49.902;8.680;2023-05-10T02:30:08;9;8;
30342;PMS5003;17145;49.902;8.680;2023-05-10T02:32:38;9;8;
30342;PMS5003;17145;49.902;8.680;2023-05-10T02:35:06;7;7;
30342;PMS5003;17145;49.902;8.680;2023-05-10T02:37:36;10;8;
30342;PMS5003;17145;49.902;8.680;2023-05-10T02:40:05;8;8;
30342;PMS5003;17145;49.902;8.680;2023-05-10T02:42:36;6;6;
30342;PMS5003;17145;49.902;8.680;2023-05-10T02:45:07;9;9;
30342;PMS5003;17145;49.902;8.680;2023-05-10T02:47:38;6;6;
30342;PMS5003;17145;49.902;8.680;2023-05-10T02:50:06;6;6;
30342;PMS5003;17145;49.902;8.680;2023-05-10T02:52:38;9;8;
30342;PMS5003;17145;49.902;8.680;2023-05-10T02:55:12;9;9;
30342;PMS5003;17145;49.902;8.680;2023-05-10T02:57:45;8;8;
30342;PMS5003;17145;49.902;8.680;2023-05-10T03:00:17;8;8;
30342;PMS5003;17145;49.902;8.680;2023-05-10T03:02:45;10;10;
30342;PMS5003;17145;49.902;8.680;2023-05-10T03:05:12;8;8;
30342;PMS5003;17145;49.902;8.680;2023-05-10T03:07:40;8;8;
30342;PMS5003;17145;49.902;8.680;2023-05-10T03:10:08;9;9;
30342;PMS5003;17145;49.902;8.680;2023-05-10T03:12:41;10;10;
30342;PMS5003;17145;49.902;8.680;2023-05-10T03:15:20;9;9;
30342;PMS5003;17145;49.902;8.680;2023-05-10T03:17:55;8;8;
30342;PMS5003;17145;49.902;8.680;2023-05-10T03:20:26;8;8;
30342;PMS5003;17145;49.902;8.680;2023-05-10T03:23:00;9;9;
30342;PMS5003;17145;49.902;8.680;2023-05-10T03:25:34;8;8;
30342;PMS5003;17145;49.902;8.680;2023-05-10T03:28:02;7;7;
30342;PMS5003;17145;49.902;8.680;2023-05-10T03:30:31;7;7;
30342;PMS5003;17145;49.902;8.680;2023-05-10T03:33:03;9;9;
30342;PMS5003;17145;49.902;8.680;2023-05-10T03:35:31;10;10;
30342;PMS5003;17145;49.902;8.680;2023-05-10T03:37:59;9;9;
30342;PMS5003;17145;49.902;8.680;2023-05-10T03:40:27;16;16;
30342;PMS5003;17145;49.902;8.680;2023-05-10T03:42:55;14;14;
30342;PMS5003;17145;49.902;8.680;2023-05-10T03:45:22;8;8;
30342;PMS5003;17145;49.902;8.680;2023-05-10T03:47:50;9;8;
30342;PMS5003;17145;49.902;8.680;2023-05-10T03:50:18;11;11;
30342;PMS5003;17145;49.902;8.680;2023-05-10T03:52:45;19;19;
30342;PMS5003;17145;49.902;8.680;2023-05-10T03:55:12;51;51;
30342;PMS5003;17145;49.902;8.680;2023-05-10T03:57:39;107;105;
30342;PMS5003;17145;49.902;8.680;2023-05-10T04:00:07;8;8;
30342;PMS5003;17145;49.902;8.680;2023-05-10T04:02:36;9;9;
30342;PMS5003;17145;49.902;8.680;2023-05-10T04:05:03;8;8;
30342;PMS5003;17145;49.902;8.680;2023-05-10T04:07:31;9;9;
30342;PMS5003;17145;49.902;8.680;2023-05-10T04:09:59;8;8;
30342;PMS5003;17145;49.902;8.680;2023-05-10T04:12:26;8;8;
30342;PMS5003;17145;49.902;8.680;2023-05-10T04:14:53;9;9;
30342;PMS5003;17145;49.902;8.680;2023-05-10T04:17:21;9;9;
30342;PMS5003;17145;49.902;8.680;2023-05-10T04:19:48;8;8;
30342;PMS5003;17145;49.902;8.680;2023-05-10T04:22:15;9;9;
30342;PMS5003;17145;49.902;8.680;2023-05-10T04:24:43;11;10;
30342;PMS5003;17145;49.902;8.680;2023-05-10T04:27:10;11;11;
30342;PMS5003;17145;49.902;8.680;2023-05-10T04:29:38;10;10;
30342;PMS5003;17145;49.902;8.680;2023-05-10T04:32:05;11;11;
30342;PMS5003;17145;49.902;8.680;2023-05-10T04:34:32;11;11;
30342;PMS5003;17145;49.902;8.680;2023-05-10T04:37:00;10;9;
30342;PMS5003;17145;49.902;8.680;2023-05-10T04:39:27;10;10;
30342;PMS5003;17145;49.902;8.680;2023-05-10T04:41:55;9;9;
30342;PMS5003;17145;49.902;8.680;2023-05-10T04:44:23;11;11;
30342;PMS5003;17145;49.902;8.680;2023-05-10T04:46:50;10;10;
30342;PMS5003;17145;49.902;8.680;2023-05-10T04:49:17;8;8;
30342;PMS5003;17145;49.902;8.680;2023-05-10T04:51:45;8;8;
30342;PMS5003;17145;49.902;8.680;2023-05-10T04:54:12;10;10;
30342;PMS5003;17145;49.902;8.680;2023-05-10T04:56:39;9;9;
30342;PMS5003;17145;49.902;8.680;2023-05-10T04:59:07;11;11;
30342;PMS5003;17145;49.902;8.680;2023-05-10T05:01:35;12;11;
30342;PMS5003;17145;49.902;8.680;2023-05-10T05:04:02;9;9;
30342;PMS5003;17145;49.902;8.680;2023-05-10T05:06:30;11;11;
30342;PMS5003;17145;49.902;8.680;2023-05-10T05:08:57;9;9;
30342;PMS5003;17145;49.902;8.680;2023-05-10T05:11:25;9;9;
30342;PMS5003;17145;49.902;8.680;2023-05-10T05:13:52;11;10;
30342;PMS5003;17145;49.902;8.680;2023-05-10T05:16:19;10;10;
30342;PMS5003;17145;49.902;8.680;2023-05-10T05:18:47;10;10;
30342;PMS5003;17145;49.902;8.680;2023-05-10T05:21:14;10;9;
30342;PMS5003;17145;49.902;8.680;2023-05-10T05:23:42;11;10;
30342;PMS5003;17145;49.902;8.680;2023-05-10T05:26:10;15;14;
30342;PMS5003;17145;49.902;8.680;2023-05-10T05:28:37;11;10;
30342;PMS5003;17145;49.902;8.680;2023-05-10T05:31:05;12;12;
30342;PMS5003;17145;49.902;8.680;2023-05-10T05:33:33;12;10;
30342;PMS5003;17145;49.902;8.680;2023-05-10T05:36:01;11;11;
30342;PMS5003;17145;49.902;8.680;2023-05-10T05:38:28;12;12;
30342;PMS5003;17145;49.902;8.680;2023-05-10T05:40:56;11;11;
30342;PMS5003;17145;49.902;8.680;2023-05-10T05:43:23;11;11;
30342;PMS5003;17145;49.902;8.680;2023-05-10T05:45:51;10;10;
30342;PMS5003;17145;49.902;8.680;2023-05-10T05:48:19;10;10;
30342;PMS5003;17145;49.902;8.680;2023-05-10T05:50:47;11;11;
30342;PMS5003;17145;49.902;8.680;2023-05-10T05:53:14;10;10;
30342;PMS5003;17145;49.902;8.680;2023-05-10T05:58:18;9;9;
30342;PMS5003;17145;49.902;8.680;2023-05-10T06:00:46;9;9;
30342;PMS5003;17145;49.902;8.680;2023-05-10T06:03:14;9;8;
30342;PMS5003;17145;49.902;8.680;2023-05-10T06:05:41;8;8;
30342;PMS5003;17145;49.902;8.680;2023-05-10T06:08:10;8;8;
30342;PMS5003;17145;49.902;8.680;2023-05-10T06:10:38;15;14;
30342;PMS5003;17145;49.902;8.680;2023-05-10T06:13:06;21;21;
30342;PMS5003;17145;49.902;8.680;2023-05-10T06:15:34;22;22;
30342;PMS5003;17145;49.902;8.680;2023-05-10T06:18:01;15;15;
30342;PMS5003;17145;49.902;8.680;2023-05-10T06:20:30;9;9;
30342;PMS5003;17145;49.902;8.680;2023-05-10T06:22:58;9;9;
30342;PMS5003;17145;49.902;8.680;2023-05-10T06:25:25;9;9;
30342;PMS5003;17145;49.902;8.680;2023-05-10T06:27:53;8;8;
30342;PMS5003;17145;49.902;8.680;2023-05-10T06:30:20;11;10;
30342;PMS5003;17145;49.902;8.680;2023-05-10T06:32:47;11;11;
30342;PMS5003;17145;49.902;8.680;2023-05-10T06:35:15;11;9;
30342;PMS5003;17145;49.902;8.680;2023-05-10T06:37:42;8;8;
30342;PMS5003;17145;49.902;8.680;2023-05-10T06:40:10;10;9;
30342;PMS5003;17145;49.902;8.680;2023-05-10T06:42:37;9;9;
30342;PMS5003;17145;49.902;8.680;2023-05-10T06:45:05;9;9;
30342;PMS5003;17145;49.902;8.680;2023-05-10T06:47:33;9;8;
30342;PMS5003;17145;49.902;8.680;2023-05-10T06:50:00;8;8;
30342;PMS5003;17145;49.902;8.680;2023-05-10T06:52:28;8;8;
30342;PMS5003;17145;49.902;8.680;2023-05-10T06:54:55;12;12;
30342;PMS5003;17145;49.902;8.680;2023-05-10T06:57:23;9;9;
30342;PMS5003;17145;49.902;8.680;2023-05-10T06:59:51;10;10;
30342;PMS5003;17145;49.902;8.680;2023-05-10T07:02:18;10;9;
30342;PMS5003;17145;49.902;8.680;2023-05-10T07:04:47;10;10;
30342;PMS5003;17145;49.902;8.680;2023-05-10T07:07:15;10;10;
30342;PMS5003;17145;49.902;8.680;2023-05-10T07:09:44;12;11;
30342;PMS5003;17145;49.902;8.680;2023-05-10T07:12:11;13;12;
30342;PMS5003;17145;49.902;8.680;2023-05-10T07:14:38;14;13;
30342;PMS5003;17145;49.902;8.680;2023-05-10T07:17:06;11;11;
30342;PMS5003;17145;49.902;8.680;2023-05-10T07:19:33;13;12;
30342;PMS5003;17145;49.902;8.680;2023-05-10T07:22:01;14;14;
30342;PMS5003;17145;49.902;8.680;2023-05-10T07:24:28;13;12;
30342;PMS5003;17145;49.902;8.680;2023-05-10T07:26:55;12;12;
30342;PMS5003;17145;49.902;8.680;2023-05-10T07:29:23;10;9;
30342;PMS5003;17145;49.902;8.680;2023-05-10T07:31:50;10;10;
30342;PMS5003;17145;49.902;8.680;2023-05-10T07:34:17;11;11;
30342;PMS5003;17145;49.902;8.680;2023-05-10T07:36:45;11;11;
30342;PMS5003;17145;49.902;8.680;2023-05-10T07:39:12;11;10;
30342;PMS5003;17145;49.902;8.680;2023-05-10T07:41:40;11;9;
30342;PMS5003;17145;49.902;8.680;2023-05-10T07:44:07;10;9;
30342;PMS5003;17145;49.902;8.680;2023-05-10T07:46:35;10;10;
30342;PMS5003;17145;49.902;8.680;2023-05-10T07:49:02;10;10;
30342;PMS5003;17145;49.902;8.680;2023-05-10T07:51:30;11;11;
30342;PMS5003;17145;49.902;8.680;2023-05-10T07:53:57;10;9;
30342;PMS5003;17145;49.902;8.680;2023-05-10T07:56:25;8;8;
30342;PMS5003;17145;49.902;8.680;2023-05-10T07:58:54;10;9;
30342;PMS5003;17145;49.902;8.680;2023-05-10T08:01:21;10;9;
30342;PMS5003;17145;49.902;8.680;2023-05-10T08:03:49;9;9;
30342;PMS5003;17145;49.902;8.680;2023-05-10T08:06:17;10;10;
30342;PMS5003;17145;49.902;8.680;2023-05-10T08:08:45;8;8;
30342;PMS5003;17145;49.902;8.680;2023-05-10T08:11:12;8;8;
30342;PMS5003;17145;49.902;8.680;2023-05-10T08:13:40;11;10;
30342;PMS5003;17145;49.902;8.680;2023-05-10T08:16:07;9;9;
30342;PMS5003;17145;49.902;8.680;2023-05-10T08:18:34;10;10;
30342;PMS5003;17145;49.902;8.680;2023-05-10T08:21:02;12;11;
30342;PMS5003;17145;49.902;8.680;2023-05-10T08:23:29;10;10;
30342;PMS5003;17145;49.902;8.680;2023-05-10T08:25:57;11;11;
30342;PMS5003;17145;49.902;8.680;2023-05-10T08:28:24;10;10;
30342;PMS5003;17145;49.902;8.680;2023-05-10T08:30:52;12;12;
30342;PMS5003;17145;49.902;8.680;2023-05-10T08:33:19;12;12;
30342;PMS5003;17145;49.902;8.680;2023-05-10T08:35:46;9;9;
30342;PMS5003;17145;49.902;8.680;2023-05-10T08:38:14;10;10;
30342;PMS5003;17145;49.902;8.680;2023-05-10T08:40:41;14;13;
30342;PMS5003;17145;49.902;8.680;2023-05-10T08:43:11;12;12;
30342;PMS5003;17145;49.902;8.680;2023-05-10T08:45:40;12;12;
30342;PMS5003;17145;49.902;8.680;2023-05-10T08:48:09;12;12;
30342;PMS5003;17145;49.902;8.680;2023-05-10T08:50:38;12;12;
30342;PMS5003;17145;49.902;8.680;2023-05-10T08:53:08;14;14;
30342;PMS5003;17145;49.902;8.680;2023-05-10T08:55:37;10;10;
30342;PMS5003;17145;49.902;8.680;2023-05-10T08:58:06;15;15;
30342;PMS5003;17145;49.902;8.680;2023-05-10T09:00:33;14;13;
30342;PMS5003;17145;49.902;8.680;2023-05-10T09:03:02;14;13;
30342;PMS5003;17145;49.902;8.680;2023-05-10T09:05:31;16;15;
30342;PMS5003;17145;49.902;8.680;2023-05-10T09:07:59;14;14;
30342;PMS5003;17145;49.902;8.680;2023-05-10T09:10:26;15;13;
30342;PMS5003;17145;49.902;8.680;2023-05-10T09:12:56;11;10;
30342;PMS5003;17145;49.902;8.680;2023-05-10T09:15:24;10;10;
30342;PMS5003;17145;49.902;8.680;2023-05-10T09:17:52;11;11;
30342;PMS5003;17145;49.902;8.680;2023-05-10T09:20:21;11;11;
30342;PMS5003;17145;49.902;8.680;2023-05-10T09:22:48;9;9;
30342;PMS5003;17145;49.902;8.680;2023-05-10T09:25:16;11;10;
30342;PMS5003;17145;49.902;8.680;2023-05-10T09:27:44;11;11;
30342;PMS5003;17145;49.902;8.680;2023-05-10T09:30:15;11;11;
30342;PMS5003;17145;49.902;8.680;2023-05-10T09:32:44;10;10;
30342;PMS5003;17145;49.902;8.680;2023-05-10T09:35:14;13;12;
30342;PMS5003;17145;49.902;8.680;2023-05-10T09:37:44;12;12;
30342;PMS5003;17145;49.902;8.680;2023-05-10T09:40:13;19;12;
30342;PMS5003;17145;49.902;8.680;2023-05-10T09:42:51;13;11;
30342;PMS5003;17145;49.902;8.680;2023-05-10T09:45:20;12;12;
30342;PMS5003;17145;49.902;8.680;2023-05-10T09:47:48;14;13;
30342;PMS5003;17145;49.902;8.680;2023-05-10T09:50:15;14;14;
30342;PMS5003;17145;49.902;8.680;2023-05-10T09:52:47;17;16;
30342;PMS5003;17145;49.902;8.680;2023-05-10T09:55:16;13;13;
30342;PMS5003;17145;49.902;8.680;2023-05-10T09:57:45;13;12;
30342;PMS5003;17145;49.902;8.680;2023-05-10T10:00:16;17;16;
30342;PMS5003;17145;49.902;8.680;2023-05-10T10:02:45;14;13;
30342;PMS5003;17145;49.902;8.680;2023-05-10T10:05:14;18;17;
30342;PMS5003;17145;49.902;8.680;2023-05-10T10:07:42;19;19;
30342;PMS5003;17145;49.902;8.680;2023-05-10T10:10:09;14;13;
30342;PMS5003;17145;49.902;8.680;2023-05-10T10:12:37;17;17;
30342;PMS5003;17145;49.902;8.680;2023-05-10T10:15:06;17;16;
30342;PMS5003;17145;49.902;8.680;2023-05-10T10:17:35;21;20;
30342;PMS5003;17145;49.902;8.680;2023-05-10T10:20:03;18;17;
30342;PMS5003;17145;49.902;8.680;2023-05-10T10:22:31;19;19;
30342;PMS5003;17145;49.902;8.680;2023-05-10T10:24:59;18;18;
30342;PMS5003;17145;49.902;8.680;2023-05-10T10:27:28;16;16;
30342;PMS5003;17145;49.902;8.680;2023-05-10T10:30:07;17;17;
30342;PMS5003;17145;49.902;8.680;2023-05-10T10:32:55;16;16;
30342;PMS5003;17145;49.902;8.680;2023-05-10T10:35:27;16;16;
30342;PMS5003;17145;49.902;8.680;2023-05-10T10:37:56;17;16;
30342;PMS5003;17145;49.902;8.680;2023-05-10T10:40:24;17;14;
30342;PMS5003;17145;49.902;8.680;2023-05-10T10:42:53;15;15;
30342;PMS5003;17145;49.902;8.680;2023-05-10T10:45:22;17;16;
30342;PMS5003;17145;49.902;8.680;2023-05-10T10:47:54;16;16;
30342;PMS5003;17145;49.902;8.680;2023-05-10T10:53:11;18;17;
30342;PMS5003;17145;49.902;8.680;2023-05-10T10:58:16;13;13;
30342;PMS5003;17145;49.902;8.680;2023-05-10T11:03:38;18;16;
30342;PMS5003;17145;49.902;8.680;2023-05-10T11:06:05;14;13;
30342;PMS5003;17145;49.902;8.680;2023-05-10T11:08:33;15;15;
30342;PMS5003;17145;49.902;8.680;2023-05-10T11:11:06;16;14;
30342;PMS5003;17145;49.902;8.680;2023-05-10T11:13:37;15;15;
30342;PMS5003;17145;49.902;8.680;2023-05-10T11:16:10;16;14;
30342;PMS5003;17145;49.902;8.680;2023-05-10T11:18:39;17;17;
30342;PMS5003;17145;49.902;8.680;2023-05-10T11:21:08;19;19;
30342;PMS5003;17145;49.902;8.680;2023-05-10T11:26:15;21;21;
30342;PMS5003;17145;49.902;8.680;2023-05-10T11:28:43;23;22;
30342;PMS5003;17145;49.902;8.680;2023-05-10T11:31:13;22;21;
30342;PMS5003;17145;49.902;8.680;2023-05-10T11:33:43;19;18;
30342;PMS5003;17145;49.902;8.680;2023-05-10T11:36:11;18;18;
30342;PMS5003;17145;49.902;8.680;2023-05-10T11:38:38;18;18;
30342;PMS5003;17145;49.902;8.680;2023-05-10T11:41:07;20;20;
30342;PMS5003;17145;49.902;8.680;2023-05-10T11:43:35;20;20;
30342;PMS5003;17145;49.902;8.680;2023-05-10T11:46:03;19;19;
30342;PMS5003;17145;49.902;8.680;2023-05-10T11:48:31;18;18;
30342;PMS5003;17145;49.902;8.680;2023-05-10T11:50:58;19;18;
30342;PMS5003;17145;49.902;8.680;2023-05-10T11:53:27;17;17;
30342;PMS5003;17145;49.902;8.680;2023-05-10T11:55:58;19;19;
30342;PMS5003;17145;49.902;8.680;2023-05-10T11:58:30;18;17;
30342;PMS5003;17145;49.902;8.680;2023-05-10T12:00:58;17;17;
30342;PMS5003;17145;49.902;8.680;2023-05-10T12:03:26;19;19;
30342;PMS5003;17145;49.902;8.680;2023-05-10T12:05:54;19;19;
30342;PMS5003;17145;49.902;8.680;2023-05-10T12:08:23;19;15;
30342;PMS5003;17145;49.902;8.680;2023-05-10T12:10:51;17;17;
30342;PMS5003;17145;49.902;8.680;2023-05-10T12:13:20;20;20;
30342;PMS5003;17145;49.902;8.680;2023-05-10T12:15:47;15;15;
30342;PMS5003;17145;49.902;8.680;2023-05-10T12:18:22;18;18;
30342;PMS5003;17145;49.902;8.680;2023-05-10T12:20:49;20;19;
30342;PMS5003;17145;49.902;8.680;2023-05-10T12:23:19;21;20;
30342;PMS5003;17145;49.902;8.680;2023-05-10T12:25:47;21;21;
30342;PMS5003;17145;49.902;8.680;2023-05-10T12:28:14;19;19;
30342;PMS5003;17145;49.902;8.680;2023-05-10T12:30:41;21;19;
30342;PMS5003;17145;49.902;8.680;2023-05-10T12:33:09;25;21;
30342;PMS5003;17145;49.902;8.680;2023-05-10T12:35:44;19;18;
30342;PMS5003;17145;49.902;8.680;2023-05-10T12:40:51;21;21;
30342;PMS5003;17145;49.902;8.680;2023-05-10T12:43:18;21;20;
30342;PMS5003;17145;49.902;8.680;2023-05-10T12:45:46;21;21;
30342;PMS5003;17145;49.902;8.680;2023-05-10T12:48:15;18;18;
30342;PMS5003;17145;49.902;8.680;2023-05-10T12:50:42;24;23;
30342;PMS5003;17145;49.902;8.680;2023-05-10T12:53:10;27;26;
30342;PMS5003;17145;49.902;8.680;2023-05-10T12:55:38;26;26;
30342;PMS5003;17145;49.902;8.680;2023-05-10T12:58:05;19;18;
30342;PMS5003;17145;49.902;8.680;2023-05-10T13:00:32;20;20;
30342;PMS5003;17145;49.902;8.680;2023-05-10T13:03:00;29;24;
30342;PMS5003;17145;49.902;8.680;2023-05-10T13:05:28;25;23;
30342;PMS5003;17145;49.902;8.680;2023-05-10T13:07:55;20;20;
30342;PMS5003;17145;49.902;8.680;2023-05-10T13:10:22;32;29;
30342;PMS5003;17145;49.902;8.680;2023-05-10T13:12:50;30;25;
30342;PMS5003;17145;49.902;8.680;2023-05-10T13:15:17;25;24;
30342;PMS5003;17145;49.902;8.680;2023-05-10T13:17:44;21;21;
30342;PMS5003;17145;49.902;8.680;2023-05-10T13:20:12;20;20;
30342;PMS5003;17145;49.902;8.680;2023-05-10T13:22:40;21;20;
30342;PMS5003;17145;49.902;8.680;2023-05-10T13:25:07;20;20;
30342;PMS5003;17145;49.902;8.680;2023-05-10T13:27:35;20;20;
30342;PMS5003;17145;49.902;8.680;2023-05-10T13:30:03;26;24;
30342;PMS5003;17145;49.902;8.680;2023-05-10T13:32:33;21;19;
30342;PMS5003;17145;49.902;8.680;2023-05-10T13:35:01;20;19;
30342;PMS5003;17145;49.902;8.680;2023-05-10T13:37:29;21;21;
30342;PMS5003;17145;49.902;8.680;2023-05-10T13:39:57;22;22;
30342;PMS5003;17145;49.902;8.680;2023-05-10T13:42:25;23;22;
30342;PMS5003;17145;49.902;8.680;2023-05-10T13:44:53;20;20;
30342;PMS5003;17145;49.902;8.680;2023-05-10T13:47:20;21;21;
30342;PMS5003;17145;49.902;8.680;2023-05-10T13:49:47;22;22;
30342;PMS5003;17145;49.902;8.680;2023-05-10T13:52:15;22;21;
30342;PMS5003;17145;49.902;8.680;2023-05-10T13:54:42;22;20;
30342;PMS5003;17145;49.902;8.680;2023-05-10T13:57:10;23;22;
30342;PMS5003;17145;49.902;8.680;2023-05-10T13:59:37;21;20;
30342;PMS5003;17145;49.902;8.680;2023-05-10T14:02:05;27;22;
30342;PMS5003;17145;49.902;8.680;2023-05-10T14:04:33;20;19;
30342;PMS5003;17145;49.902;8.680;2023-05-10T14:07:00;20;19;
30342;PMS5003;17145;49.902;8.680;2023-05-10T14:09:28;23;23;
30342;PMS5003;17145;49.902;8.680;2023-05-10T14:11:55;20;19;
30342;PMS5003;17145;49.902;8.680;2023-05-10T14:14:23;20;20;
30342;PMS5003;17145;49.902;8.680;2023-05-10T14:16:50;26;23;
30342;PMS5003;17145;49.902;8.680;2023-05-10T14:19:18;18;18;
30342;PMS5003;17145;49.902;8.680;2023-05-10T14:21:45;20;20;
30342;PMS5003;17145;49.902;8.680;2023-05-10T14:24:13;25;23;
30342;PMS5003;17145;49.902;8.680;2023-05-10T14:26:40;19;18;
30342;PMS5003;17145;49.902;8.680;2023-05-10T14:29:08;21;21;
30342;PMS5003;17145;49.902;8.680;2023-05-10T14:31:35;23;22;
30342;PMS5003;17145;49.902;8.680;2023-05-10T14:34:02;19;19;
30342;PMS5003;17145;49.902;8.680;2023-05-10T14:36:30;31;24;
30342;PMS5003;17145;49.902;8.680;2023-05-10T14:38:57;22;22;
30342;PMS5003;17145;49.902;8.680;2023-05-10T14:41:25;25;21;
30342;PMS5003;17145;49.902;8.680;2023-05-10T14:43:52;18;18;
30342;PMS5003;17145;49.902;8.680;2023-05-10T14:46:19;22;22;
30342;PMS5003;17145;49.902;8.680;2023-05-10T14:48:47;22;22;
30342;PMS5003;17145;49.902;8.680;2023-05-10T14:51:14;25;23;
30342;PMS5003;17145;49.902;8.680;2023-05-10T14:53:42;22;22;
30342;PMS5003;17145;49.902;8.680;2023-05-10T14:56:09;26;23;
30342;PMS5003;17145;49.902;8.680;2023-05-10T14:58:37;29;22;
30342;PMS5003;17145;49.902;8.680;2023-05-10T15:01:04;23;21;
30342;PMS5003;17145;49.902;8.680;2023-05-10T15:03:32;25;19;
30342;PMS5003;17145;49.902;8.680;2023-05-10T15:05:59;23;22;
30342;PMS5003;17145;49.902;8.680;2023-05-10T15:08:26;27;22;
30342;PMS5003;17145;49.902;8.680;2023-05-10T15:10:54;21;19;
30342;PMS5003;17145;49.902;8.680;2023-05-10T15:13:21;25;23;
30342;PMS5003;17145;49.902;8.680;2023-05-10T15:15:49;22;21;
30342;PMS5003;17145;49.902;8.680;2023-05-10T15:18:16;22;21;
30342;PMS5003;17145;49.902;8.680;2023-05-10T15:20:44;21;20;
30342;PMS5003;17145;49.902;8.680;2023-05-10T15:23:11;22;22;
30342;PMS5003;17145;49.902;8.680;2023-05-10T15:25:39;20;20;
30342;PMS5003;17145;49.902;8.680;2023-05-10T15:28:07;20;20;
30342;PMS5003;17145;49.902;8.680;2023-05-10T15:30:34;21;21;
30342;PMS5003;17145;49.902;8.680;2023-05-10T15:33:01;20;19;
30342;PMS5003;17145;49.902;8.680;2023-05-10T15:35:29;21;20;
30342;PMS5003;17145;49.902;8.680;2023-05-10T15:37:56;20;18;
30342;PMS5003;17145;49.902;8.680;2023-05-10T15:40:24;18;18;
30342;PMS5003;17145;49.902;8.680;2023-05-10T15:42:51;25;24;
30342;PMS5003;17145;49.902;8.680;2023-05-10T15:45:18;21;21;
30342;PMS5003;17145;49.902;8.680;2023-05-10T15:47:46;25;21;
30342;PMS5003;17145;49.902;8.680;2023-05-10T15:50:14;22;21;
30342;PMS5003;17145;49.902;8.680;2023-05-10T15:52:42;21;20;
30342;PMS5003;17145;49.902;8.680;2023-05-10T15:55:10;19;19;
30342;PMS5003;17145;49.902;8.680;2023-05-10T15:57:39;26;20;
30342;PMS5003;17145;49.902;8.680;2023-05-10T16:00:08;19;19;
30342;PMS5003;17145;49.902;8.680;2023-05-10T16:02:37;18;18;
30342;PMS5003;17145;49.902;8.680;2023-05-10T16:05:05;20;19;
30342;PMS5003;17145;49.902;8.680;2023-05-10T16:07:33;20;19;
30342;PMS5003;17145;49.902;8.680;2023-05-10T16:10:00;20;19;
30342;PMS5003;17145;49.902;8.680;2023-05-10T16:12:28;27;18;
30342;PMS5003;17145;49.902;8.680;2023-05-10T16:14:56;18;18;
30342;PMS5003;17145;49.902;8.680;2023-05-10T16:17:23;19;19;
30342;PMS5003;17145;49.902;8.680;2023-05-10T16:19:50;23;21;
30342;PMS5003;17145;49.902;8.680;2023-05-10T16:22:18;23;21;
30342;PMS5003;17145;49.902;8.680;2023-05-10T16:24:45;21;21;
30342;PMS5003;17145;49.902;8.680;2023-05-10T16:27:13;18;18;
30342;PMS5003;17145;49.902;8.680;2023-05-10T16:29:40;20;19;
30342;PMS5003;17145;49.902;8.680;2023-05-10T16:32:08;19;19;
30342;PMS5003;17145;49.902;8.680;2023-05-10T16:34:35;17;17;
30342;PMS5003;17145;49.902;8.680;2023-05-10T16:37:03;21;19;
30342;PMS5003;17145;49.902;8.680;2023-05-10T16:39:30;18;18;
30342;PMS5003;17145;49.902;8.680;2023-05-10T16:41:57;18;17;
30342;PMS5003;17145;49.902;8.680;2023-05-10T16:44:25;17;17;
30342;PMS5003;17145;49.902;8.680;2023-05-10T16:46:52;18;16;
30342;PMS5003;17145;49.902;8.680;2023-05-10T16:49:19;20;18;
30342;PMS5003;17145;49.902;8.680;2023-05-10T16:51:47;19;18;